Time;durP1;ratioP1;P1;durP2;ratioP2;P2;SDS_P1;SDS_P2;PMS_P1;PMS_P2;Temp;Humidity;BMP_temperature;BMP_pressure;BME280_temperature;BME280_humidity;BME280_pressure;Samples;Min_cycle;Max_cycle;Signal;HPM_P1;HPM_P2
2021/04/27 00:00:54;;;;;;;6.18;3.75;;;12.90;62.40;;;;;;5057764;28;20060;-71
2021/04/27 00:03:20;;;;;;;10.18;4.75;;;12.90;62.20;;;;;;5075692;28;20075;-70
2021/04/27 00:05:46;;;;;;;5.55;3.78;;;12.90;62.40;;;;;;5075666;28;20059;-70
2021/04/27 00:08:11;;;;;;;7.90;3.70;;;12.80;63.30;;;;;;5075726;28;20118;-72
2021/04/27 00:10:37;;;;;;;11.02;4.20;;;12.80;63.40;;;;;;5075617;28;20024;-70
2021/04/27 00:13:04;;;;;;;6.82;4.40;;;12.80;64.30;;;;;;5057656;28;20021;-70
2021/04/27 00:15:31;;;;;;;11.55;4.75;;;12.80;63.90;;;;;;5057507;28;20530;-73
2021/04/27 00:17:57;;;;;;;8.15;4.38;;;12.80;63.30;;;;;;5057617;28;20036;-72
2021/04/27 00:20:24;;;;;;;12.48;4.20;;;12.70;63.60;;;;;;5075432;28;20076;-70
2021/04/27 00:22:51;;;;;;;6.72;4.05;;;12.50;65.60;;;;;;5057342;28;20020;-71
2021/04/27 00:25:18;;;;;;;7.32;4.07;;;12.60;63.40;;;;;;5057139;28;20056;-72
2021/04/27 00:27:49;;;;;;;6.53;4.22;;;12.50;63.60;;;;;;5075329;28;20047;-72
2021/04/27 00:30:16;;;;;;;9.65;4.80;;;12.50;64.60;;;;;;5075350;28;20020;-70
2021/04/27 00:32:43;;;;;;;7.40;4.40;;;12.50;62.30;;;;;;5057188;28;20035;-70
2021/04/27 00:35:10;;;;;;;9.45;4.32;;;12.40;61.90;;;;;;5057152;28;20393;-70
2021/04/27 00:37:36;;;;;;;7.32;4.20;;;12.30;61.30;;;;;;5075196;28;20031;-69
2021/04/27 00:40:04;;;;;;;7.00;3.85;;;12.40;60.80;;;;;;5075337;28;20038;-70
2021/04/27 00:42:37;;;;;;;13.18;4.45;;;12.40;61.50;;;;;;5074782;28;20078;-69
2021/04/27 00:45:07;;;;;;;8.20;4.57;;;12.40;62.00;;;;;;5074943;28;20025;-70
2021/04/27 00:47:33;;;;;;;10.40;3.70;;;12.40;61.30;;;;;;5074989;28;20079;-72
2021/04/27 00:49:58;;;;;;;8.55;4.78;;;12.40;60.80;;;;;;5074893;28;20074;-72
2021/04/27 00:52:25;;;;;;;10.05;4.45;;;12.50;61.30;;;;;;5074152;28;20373;-73
2021/04/27 00:54:51;;;;;;;10.60;4.78;;;12.40;61.90;;;;;;5056852;28;20039;-70
2021/04/27 00:57:19;;;;;;;5.90;4.00;;;12.40;62.00;;;;;;5074797;28;20024;-71
2021/04/27 00:59:44;;;;;;;7.80;4.18;;;12.30;62.50;;;;;;5074998;28;20028;-72
2021/04/27 01:02:10;;;;;;;11.73;4.57;;;12.30;62.20;;;;;;5056663;28;20082;-70
2021/04/27 01:04:36;;;;;;;7.80;4.85;;;12.30;62.40;;;;;;5074564;28;20036;-71
2021/04/27 01:07:02;;;;;;;8.98;4.40;;;12.40;62.50;;;;;;5074866;28;20060;-71
2021/04/27 01:09:41;;;;;;;9.90;4.00;;;12.40;62.90;;;;;;5074509;28;20097;-69
2021/04/27 01:12:14;;;;;;;5.40;4.22;;;12.40;62.80;;;;;;5074809;28;20056;-69
2021/04/27 01:14:44;;;;;;;7.78;4.32;;;12.40;63.20;;;;;;5056444;28;20024;-69
2021/04/27 01:17:13;;;;;;;8.65;4.20;;;12.30;63.00;;;;;;5074421;28;20024;-71
2021/04/27 01:20:18;;;;;;;7.00;4.35;;;12.30;63.90;;;;;;5074031;28;20028;-69
2021/04/27 01:22:54;;;;;;;8.93;4.72;;;12.30;64.30;;;;;;5074282;28;20078;-70
2021/04/27 01:25:49;;;;;;;7.07;4.72;;;12.20;64.00;;;;;;5048801;28;20099;-69
2021/04/27 01:28:17;;;;;;;8.38;4.53;;;12.20;65.30;;;;;;5028428;28;20041;-69
2021/04/27 01:30:44;;;;;;;7.15;4.70;;;12.20;65.20;;;;;;5034256;28;20030;-69
2021/04/27 01:33:21;;;;;;;5.82;4.05;;;12.20;65.50;;;;;;5034140;28;20029;-69
2021/04/27 01:35:48;;;;;;;9.85;4.07;;;12.20;66.00;;;;;;5034189;28;20040;-69
2021/04/27 01:38:15;;;;;;;10.70;4.63;;;12.10;65.50;;;;;;5033909;28;20040;-69
2021/04/27 01:40:42;;;;;;;7.03;4.53;;;12.10;65.60;;;;;;5034053;28;20049;-69
2021/04/27 01:43:08;;;;;;;7.95;5.47;;;12.10;66.30;;;;;;5033899;28;20030;-69
2021/04/27 01:45:35;;;;;;;12.05;5.53;;;12.10;66.40;;;;;;5033999;28;20033;-69
2021/04/27 01:48:01;;;;;;;8.93;4.93;;;12.10;66.10;;;;;;5034208;28;20028;-69
2021/04/27 01:50:29;;;;;;;10.55;5.45;;;12.10;67.30;;;;;;5033822;28;20026;-69
2021/04/27 01:52:55;;;;;;;10.02;5.38;;;12.10;66.20;;;;;;5034061;28;20034;-69
2021/04/27 01:55:22;;;;;;;10.05;4.85;;;12.10;66.80;;;;;;5033464;28;20037;-69
2021/04/27 01:57:48;;;;;;;8.27;4.65;;;12.10;66.60;;;;;;5033464;28;20352;-69
2021/04/27 02:00:18;;;;;;;8.13;4.68;;;12.10;66.90;;;;;;5032309;28;20037;-69
2021/04/27 02:02:45;;;;;;;9.63;5.18;;;12.10;67.20;;;;;;5032304;28;20029;-69
2021/04/27 02:05:13;;;;;;;9.43;4.82;;;12.00;66.40;;;;;;5032248;28;20056;-70
2021/04/27 02:07:39;;;;;;;7.78;5.30;;;12.00;66.60;;;;;;5033639;28;20032;-69
2021/04/27 02:10:08;;;;;;;9.40;5.35;;;12.00;67.90;;;;;;5033530;28;20028;-69
2021/04/27 02:12:35;;;;;;;6.72;4.63;;;12.00;67.30;;;;;;5033646;28;20107;-70
2021/04/27 02:15:01;;;;;;;7.75;4.60;;;12.00;67.90;;;;;;5032166;28;20041;-70
2021/04/27 02:18:13;;;;;;;7.85;5.03;;;12.00;67.90;;;;;;5033503;28;20025;-71
2021/04/27 02:20:40;;;;;;;9.35;4.68;;;11.90;68.50;;;;;;5029971;28;20033;-70
2021/04/27 02:23:06;;;;;;;11.20;5.13;;;11.90;68.50;;;;;;5033253;28;20025;-70
2021/04/27 02:25:32;;;;;;;9.23;5.00;;;11.90;69.50;;;;;;5043907;28;20499;-69
2021/04/27 02:27:58;;;;;;;7.50;4.93;;;11.80;69.30;;;;;;5073171;28;20453;-68
2021/04/27 02:30:27;;;;;;;11.70;5.05;;;11.80;69.70;;;;;;5055114;28;20078;-70
2021/04/27 02:32:53;;;;;;;11.57;5.90;;;11.80;69.50;;;;;;5073104;28;20052;-70
2021/04/27 02:35:21;;;;;;;7.22;4.50;;;11.80;69.60;;;;;;5073062;28;20388;-70
2021/04/27 02:37:49;;;;;;;11.50;4.95;;;11.80;69.90;;;;;;5055112;28;20036;-69
2021/04/27 02:40:21;;;;;;;8.93;5.18;;;11.70;70.40;;;;;;5072965;28;20032;-69
2021/04/27 02:42:53;;;;;;;11.15;5.00;;;11.70;71.30;;;;;;5072795;28;20074;-69
2021/04/27 02:45:20;;;;;;;9.15;5.28;;;11.70;71.00;;;;;;5072915;28;20040;-69
2021/04/27 02:47:47;;;;;;;10.77;5.85;;;11.70;72.60;;;;;;5073004;28;20024;-70
2021/04/27 02:50:14;;;;;;;9.90;5.35;;;11.70;72.90;;;;;;5054886;28;20025;-69
2021/04/27 02:52:41;;;;;;;12.32;5.75;;;11.60;73.20;;;;;;5054873;28;20021;-69
2021/04/27 02:55:09;;;;;;;10.95;5.43;;;11.60;75.70;;;;;;5054933;28;20078;-71
2021/04/27 02:57:35;;;;;;;15.55;5.00;;;11.50;73.90;;;;;;5072878;28;20032;-69
2021/04/27 03:00:03;;;;;;;11.20;5.60;;;11.50;74.50;;;;;;5072850;28;20163;-69
2021/04/27 03:02:29;;;;;;;11.43;5.35;;;11.50;74.70;;;;;;5054700;28;20480;-69
2021/04/27 03:04:54;;;;;;;13.30;5.90;;;11.50;75.20;;;;;;5072703;28;20033;-69
2021/04/27 03:07:20;;;;;;;9.00;5.55;;;11.50;75.90;;;;;;5054708;28;20393;-69
2021/04/27 03:09:46;;;;;;;10.05;5.90;;;11.60;76.40;;;;;;5073046;28;20025;-70
2021/04/27 03:12:12;;;;;;;9.07;5.78;;;11.60;76.00;;;;;;5054681;28;20082;-69
2021/04/27 03:14:38;;;;;;;11.77;6.45;;;11.60;76.60;;;;;;5056438;28;20082;-69
2021/04/27 03:17:04;;;;;;;9.45;5.55;;;11.60;77.20;;;;;;5058651;28;20381;-69
2021/04/27 03:19:29;;;;;;;11.57;5.88;;;11.60;76.80;;;;;;5076704;28;20384;-70
2021/04/27 03:21:55;;;;;;;13.18;5.50;;;11.50;76.80;;;;;;5058550;28;20025;-70
2021/04/27 03:24:21;;;;;;;9.55;6.47;;;11.50;78.00;;;;;;5076139;28;20044;-70
2021/04/27 03:26:47;;;;;;;12.38;5.65;;;11.50;78.40;;;;;;5058338;28;20053;-70
2021/04/27 03:29:13;;;;;;;13.25;6.18;;;11.40;78.90;;;;;;5076404;28;20368;-69
2021/04/27 03:31:38;;;;;;;14.10;6.05;;;11.30;79.40;;;;;;5076352;28;20021;-69
2021/04/27 03:34:04;;;;;;;11.40;5.75;;;11.30;79.80;;;;;;5076044;28;20496;-71
2021/04/27 03:36:31;;;;;;;7.88;5.30;;;11.30;80.00;;;;;;5058261;28;20454;-71
2021/04/27 03:38:57;;;;;;;8.82;4.50;;;11.30;80.70;;;;;;5076247;28;20107;-70
2021/04/27 03:41:23;;;;;;;11.45;5.57;;;11.30;79.70;;;;;;5058167;28;20037;-70
2021/04/27 03:43:49;;;;;;;8.93;5.47;;;11.30;80.50;;;;;;5058085;28;20366;-70
2021/04/27 03:46:14;;;;;;;10.10;5.70;;;11.30;81.70;;;;;;5076086;28;20025;-71
2021/04/27 03:48:40;;;;;;;14.23;5.22;;;11.30;81.50;;;;;;5075812;28;20461;-70
2021/04/27 03:51:06;;;;;;;8.50;5.13;;;11.20;83.30;;;;;;5075999;28;20032;-71
2021/04/27 03:53:33;;;;;;;15.85;5.63;;;11.20;84.70;;;;;;5075878;28;20033;-71
2021/04/27 03:55:58;;;;;;;11.27;5.28;;;11.20;85.40;;;;;;5057968;28;20107;-70
2021/04/27 03:58:24;;;;;;;10.85;5.75;;;11.30;85.00;;;;;;5058006;28;20051;-70
2021/04/27 04:00:50;;;;;;;9.40;5.55;;;11.20;86.40;;;;;;5057883;28;20120;-72
2021/04/27 04:03:16;;;;;;;9.10;5.63;;;11.10;86.70;;;;;;5075661;28;20468;-70
2021/04/27 04:05:42;;;;;;;8.45;5.65;;;11.10;87.90;;;;;;5057680;28;20124;-69
2021/04/27 04:08:08;;;;;;;14.77;5.85;;;11.10;88.40;;;;;;5076023;28;20086;-71
2021/04/27 04:10:33;;;;;;;11.45;6.00;;;11.10;88.30;;;;;;5057664;28;20098;-69
2021/04/27 04:12:59;;;;;;;12.75;6.05;;;11.20;89.50;;;;;;5057536;28;20542;-69
2021/04/27 04:15:25;;;;;;;8.95;6.18;;;11.20;88.90;;;;;;5057505;28;20127;-69
2021/04/27 04:17:51;;;;;;;8.70;6.05;;;11.10;89.30;;;;;;5075516;28;20032;-71
2021/04/27 04:20:21;;;;;;;12.30;6.47;;;11.20;90.50;;;;;;5075534;28;20025;-69
2021/04/27 04:22:48;;;;;;;9.75;6.05;;;11.10;90.50;;;;;;5075481;28;20035;-69
2021/04/27 04:25:15;;;;;;;9.18;6.43;;;11.10;90.60;;;;;;5074355;28;20067;-72
2021/04/27 04:27:41;;;;;;;8.75;6.18;;;11.10;91.40;;;;;;5074999;28;20033;-71
2021/04/27 04:30:10;;;;;;;9.45;7.22;;;11.10;91.70;;;;;;5075103;28;20021;-71
2021/04/27 04:32:36;;;;;;;14.73;7.18;;;11.10;91.70;;;;;;5057302;28;20029;-72
2021/04/27 04:35:02;;;;;;;10.02;7.30;;;11.10;93.60;;;;;;5075472;28;20097;-70
2021/04/27 04:37:28;;;;;;;12.65;8.15;;;11.00;94.40;;;;;;5057176;28;20025;-69
2021/04/27 04:39:54;;;;;;;14.00;9.23;;;11.00;94.50;;;;;;5057188;28;20055;-71
2021/04/27 04:42:20;;;;;;;12.68;8.15;;;11.00;95.30;;;;;;5075041;28;20369;-70
2021/04/27 04:44:45;;;;;;;10.60;7.45;;;11.00;94.80;;;;;;5074930;28;20082;-70
2021/04/27 04:47:11;;;;;;;14.50;8.27;;;11.00;95.70;;;;;;5074946;28;20036;-71
2021/04/27 04:49:37;;;;;;;13.77;9.40;;;11.00;95.50;;;;;;5074968;28;20025;-70
2021/04/27 04:52:03;;;;;;;12.15;7.55;;;11.00;96.40;;;;;;5074842;28;20035;-70
2021/04/27 04:54:29;;;;;;;13.57;8.32;;;11.00;95.10;;;;;;5075130;28;20384;-71
2021/04/27 04:56:55;;;;;;;13.20;8.43;;;11.00;95.50;;;;;;5056785;28;20029;-72
2021/04/27 04:59:22;;;;;;;11.05;8.30;;;10.90;96.10;;;;;;5074763;28;20082;-72
2021/04/27 05:01:48;;;;;;;13.93;9.43;;;10.90;96.60;;;;;;5074675;28;20103;-74
2021/04/27 05:04:13;;;;;;;13.13;9.55;;;10.90;97.00;;;;;;5056519;28;20044;-69
2021/04/27 05:06:42;;;;;;;11.85;8.60;;;10.90;96.70;;;;;;5074242;28;20028;-70
2021/04/27 05:09:10;;;;;;;12.90;8.18;;;11.00;97.10;;;;;;5074335;28;20561;-70
2021/04/27 05:11:36;;;;;;;14.07;9.38;;;11.00;97.10;;;;;;5074488;28;20032;-70
2021/04/27 05:14:02;;;;;;;18.45;10.73;;;11.00;97.40;;;;;;5056305;28;20037;-69
2021/04/27 05:16:28;;;;;;;12.68;9.23;;;11.00;98.20;;;;;;5074595;28;20051;-70
2021/04/27 05:18:54;;;;;;;12.25;9.75;;;11.00;98.20;;;;;;5074262;28;20089;-71
2021/04/27 05:21:21;;;;;;;16.20;11.07;;;11.00;98.40;;;;;;5074196;28;20442;-71
2021/04/27 05:23:47;;;;;;;16.23;11.15;;;11.00;98.80;;;;;;5073862;28;20362;-72
2021/04/27 05:26:13;;;;;;;51.85;33.17;;;11.00;98.50;;;;;;5055823;28;20051;-72
2021/04/27 05:28:39;;;;;;;70.03;47.13;;;11.00;99.80;;;;;;5073583;28;20021;-71
2021/04/27 05:31:06;;;;;;;30.00;22.52;;;11.00;99.90;;;;;;5073983;28;20032;-71
2021/04/27 05:33:32;;;;;;;17.73;11.68;;;11.00;99.30;;;;;;5056014;28;20035;-71
2021/04/27 05:35:59;;;;;;;22.50;13.80;;;11.10;99.40;;;;;;5056021;28;20028;-72
2021/04/27 05:38:25;;;;;;;35.70;25.23;;;11.00;99.90;;;;;;5073911;28;20036;-71
2021/04/27 05:40:51;;;;;;;48.67;31.15;;;11.10;99.90;;;;;;5055939;28;20025;-69
2021/04/27 05:43:17;;;;;;;15.63;11.07;;;11.20;99.90;;;;;;5055731;28;20082;-70
2021/04/27 05:45:43;;;;;;;15.38;10.13;;;11.20;99.30;;;;;;5055839;28;20035;-71
2021/04/27 05:48:10;;;;;;;16.73;10.80;;;11.20;99.30;;;;;;5073710;28;20029;-71
2021/04/27 05:50:36;;;;;;;14.30;10.60;;;11.20;99.90;;;;;;5055761;28;20357;-71
2021/04/27 05:53:02;;;;;;;17.58;11.75;;;11.20;99.80;;;;;;5073618;28;20104;-71
2021/04/27 05:55:28;;;;;;;25.77;19.45;;;11.00;99.90;;;;;;5073584;28;20115;-71
2021/04/27 05:57:54;;;;;;;42.95;35.75;;;10.90;99.90;;;;;;5073221;28;20035;-72
2021/04/27 06:00:21;;;;;;;44.72;35.05;;;10.90;99.90;;;;;;5073814;28;20074;-71
2021/04/27 06:02:47;;;;;;;33.30;26.80;;;10.90;99.90;;;;;;5073326;28;20103;-70
2021/04/27 06:05:13;;;;;;;30.65;21.00;;;11.00;99.90;;;;;;5072822;28;20115;-71
2021/04/27 06:07:39;;;;;;;34.67;28.77;;;11.00;99.90;;;;;;5073227;28;20039;-71
2021/04/27 06:10:06;;;;;;;31.20;26.10;;;11.00;99.90;;;;;;5055405;28;20051;-70
2021/04/27 06:12:32;;;;;;;22.20;17.10;;;10.90;99.90;;;;;;5055349;28;20039;-71
2021/04/27 06:14:58;;;;;;;38.42;30.27;;;11.00;99.90;;;;;;5073152;28;20468;-71
2021/04/27 06:17:24;;;;;;;31.05;22.05;;;11.00;99.90;;;;;;5073519;28;20031;-72
2021/04/27 06:19:50;;;;;;;24.90;19.35;;;11.00;99.90;;;;;;5055338;28;20119;-70
2021/04/27 06:22:16;;;;;;;24.55;20.55;;;10.90;99.90;;;;;;5073245;28;20116;-70
2021/04/27 06:24:42;;;;;;;23.08;16.70;;;10.80;99.90;;;;;;5073103;28;20086;-70
2021/04/27 06:27:08;;;;;;;30.98;20.20;;;10.80;99.90;;;;;;5073253;28;20044;-70
2021/04/27 06:29:34;;;;;;;43.83;31.13;;;10.90;99.90;;;;;;5072767;28;20025;-70
2021/04/27 06:32:00;;;;;;;24.20;18.98;;;10.90;99.90;;;;;;5072465;28;20351;-71
2021/04/27 06:34:26;;;;;;;22.00;15.52;;;10.90;99.90;;;;;;5072686;28;20061;-70
2021/04/27 06:36:53;;;;;;;26.75;16.25;;;10.90;99.90;;;;;;5054835;28;20393;-70
2021/04/27 06:39:19;;;;;;;25.10;19.25;;;10.90;99.90;;;;;;5072962;28;20059;-70
2021/04/27 06:41:44;;;;;;;22.70;16.65;;;10.90;99.90;;;;;;5072959;28;20064;-70
2021/04/27 06:44:10;;;;;;;25.88;17.65;;;10.90;99.90;;;;;;5072651;28;20040;-69
2021/04/27 06:46:36;;;;;;;33.80;19.52;;;10.90;99.90;;;;;;5072892;28;20044;-71
2021/04/27 06:49:02;;;;;;;27.05;20.25;;;10.90;99.90;;;;;;5072037;28;20063;-69
2021/04/27 06:51:28;;;;;;;26.55;19.40;;;10.90;99.90;;;;;;5072904;28;20064;-70
2021/04/27 06:53:55;;;;;;;22.90;17.38;;;11.00;99.90;;;;;;5054591;28;20415;-69
2021/04/27 06:56:21;;;;;;;22.58;16.23;;;11.10;99.90;;;;;;5072843;28;20055;-69
2021/04/27 06:58:47;;;;;;;27.55;15.90;;;11.20;99.90;;;;;;5072789;28;20064;-69
2021/04/27 07:01:13;;;;;;;20.35;15.82;;;11.30;99.90;;;;;;5072759;28;20451;-69
2021/04/27 07:03:39;;;;;;;24.40;15.43;;;11.40;99.90;;;;;;5072690;28;20036;-68
2021/04/27 07:06:05;;;;;;;24.70;16.55;;;11.50;99.90;;;;;;5054615;28;20030;-69
2021/04/27 07:08:31;;;;;;;27.38;16.60;;;11.60;99.90;;;;;;5072633;28;20322;-70
2021/04/27 07:10:57;;;;;;;24.98;15.02;;;11.60;99.90;;;;;;5072663;28;20029;-71
2021/04/27 07:13:27;;;;;;;25.25;16.73;;;11.80;99.90;;;;;;5054647;28;20087;-69
2021/04/27 07:15:53;;;;;;;27.90;14.88;;;11.90;99.90;;;;;;5072618;28;20094;-71
2021/04/27 07:18:19;;;;;;;23.80;14.65;;;11.90;99.90;;;;;;5050606;28;20063;-69
2021/04/27 07:20:45;;;;;;;27.85;18.73;;;11.90;99.90;;;;;;5071348;28;20370;-70
2021/04/27 07:23:11;;;;;;;25.98;17.42;;;12.10;99.90;;;;;;5072608;28;20040;-70
2021/04/27 07:25:37;;;;;;;24.80;15.05;;;12.30;99.90;;;;;;5072428;28;20076;-69
2021/04/27 07:28:05;;;;;;;24.00;16.98;;;12.40;99.90;;;;;;5072414;28;20053;-71
2021/04/27 07:30:35;;;;;;;38.35;24.98;;;12.50;99.90;;;;;;5072629;28;20021;-70
2021/04/27 07:33:02;;;;;;;40.10;26.60;;;12.70;99.90;;;;;;5054167;28;20035;-69
2021/04/27 07:35:29;;;;;;;24.33;17.00;;;12.80;99.90;;;;;;5072471;28;20465;-68
2021/04/27 07:37:55;;;;;;;23.45;15.88;;;12.70;99.90;;;;;;5072415;28;20067;-71
2021/04/27 07:40:21;;;;;;;30.73;16.00;;;12.90;99.90;;;;;;5072293;28;20029;-71
2021/04/27 07:42:47;;;;;;;25.77;17.65;;;12.90;99.90;;;;;;5072335;28;20028;-72
2021/04/27 07:45:14;;;;;;;21.42;16.90;;;12.80;99.90;;;;;;5071582;28;20112;-72
2021/04/27 07:47:40;;;;;;;23.85;15.75;;;12.90;99.90;;;;;;5053701;28;20036;-72
2021/04/27 07:50:08;;;;;;;30.98;19.02;;;13.10;99.90;;;;;;5071899;28;20071;-71
2021/04/27 07:52:35;;;;;;;24.38;17.45;;;13.10;99.90;;;;;;5072219;28;20066;-70
2021/04/27 07:55:02;;;;;;;25.52;18.13;;;13.00;99.90;;;;;;5054270;28;20491;-71
2021/04/27 07:57:28;;;;;;;21.13;16.17;;;12.80;99.90;;;;;;5072118;28;20025;-72
2021/04/27 07:59:54;;;;;;;22.15;17.17;;;12.70;99.90;;;;;;5072724;28;20116;-69
2021/04/27 08:02:20;;;;;;;27.58;18.08;;;12.60;99.90;;;;;;5057885;28;20381;-71
2021/04/27 08:04:46;;;;;;;26.42;18.17;;;12.70;99.90;;;;;;5057712;28;20029;-70
2021/04/27 08:07:13;;;;;;;33.65;16.25;;;12.70;99.90;;;;;;5075660;28;20040;-70
2021/04/27 08:09:39;;;;;;;24.35;17.80;;;12.80;99.90;;;;;;5075741;28;20056;-73
2021/04/27 08:12:06;;;;;;;27.00;18.50;;;12.70;99.90;;;;;;5057684;28;20056;-72
2021/04/27 08:14:32;;;;;;;25.52;18.45;;;12.50;99.90;;;;;;5057633;28;20516;-71
2021/04/27 08:16:59;;;;;;;27.13;20.65;;;12.50;99.90;;;;;;5057522;28;20029;-70
2021/04/27 08:19:25;;;;;;;26.58;20.10;;;12.30;99.90;;;;;;5075693;28;20051;-71
2021/04/27 08:21:51;;;;;;;24.30;19.10;;;12.30;99.90;;;;;;5075239;28;20360;-70
2021/04/27 08:24:17;;;;;;;25.50;20.30;;;12.40;99.90;;;;;;5057323;28;20036;-71
2021/04/27 08:26:43;;;;;;;27.33;21.20;;;12.30;99.90;;;;;;5038648;28;20060;-70
2021/04/27 08:29:09;;;;;;;29.55;23.55;;;12.30;99.90;;;;;;5034154;28;20124;-70
2021/04/27 08:31:35;;;;;;;28.88;20.80;;;12.40;99.90;;;;;;5035198;28;20100;-71
2021/04/27 08:34:01;;;;;;;34.35;23.20;;;12.40;99.90;;;;;;5035317;28;20034;-70
2021/04/27 08:36:27;;;;;;;31.50;23.10;;;12.30;99.90;;;;;;5033899;28;20529;-71
2021/04/27 08:38:54;;;;;;;30.65;23.83;;;12.30;99.90;;;;;;5033851;28;20025;-72
2021/04/27 08:41:23;;;;;;;32.22;24.27;;;12.30;99.90;;;;;;5033917;28;20029;-73
2021/04/27 08:43:50;;;;;;;38.33;27.05;;;12.30;99.90;;;;;;5035284;28;20033;-70
2021/04/27 08:46:16;;;;;;;30.30;24.30;;;12.30;99.90;;;;;;5035056;28;20029;-70
2021/04/27 08:48:43;;;;;;;36.40;26.88;;;12.30;99.90;;;;;;5033742;28;20048;-72
2021/04/27 08:51:12;;;;;;;34.80;27.30;;;12.40;99.90;;;;;;5034233;28;20098;-71
2021/04/27 08:53:38;;;;;;;31.65;24.92;;;12.50;99.90;;;;;;5031084;28;20021;-73
2021/04/27 08:56:04;;;;;;;32.45;23.90;;;12.60;99.90;;;;;;5032377;28;20029;-72
2021/04/27 08:58:30;;;;;;;28.73;23.25;;;12.60;99.90;;;;;;5033321;28;20494;-72
2021/04/27 09:00:55;;;;;;;29.88;24.27;;;12.70;99.90;;;;;;5033829;28;20022;-71
2021/04/27 09:03:21;;;;;;;31.13;24.30;;;12.70;99.90;;;;;;5033197;28;20029;-72
2021/04/27 09:05:47;;;;;;;31.38;23.77;;;12.80;99.90;;;;;;5034734;28;20096;-70
2021/04/27 09:08:13;;;;;;;26.38;22.23;;;12.80;99.90;;;;;;5034924;28;20096;-71
2021/04/27 09:10:44;;;;;;;27.88;22.52;;;12.80;99.90;;;;;;5033413;28;20466;-72
2021/04/27 09:13:18;;;;;;;26.67;20.33;;;12.70;99.90;;;;;;5034041;28;20140;-72
2021/04/27 09:15:47;;;;;;;25.27;21.33;;;12.70;99.90;;;;;;5033316;28;20030;-70
2021/04/27 09:18:23;;;;;;;29.55;22.42;;;12.80;99.90;;;;;;5033147;28;20029;-71
2021/04/27 09:21:06;;;;;;;29.75;23.77;;;12.80;99.90;;;;;;5034475;28;20037;-71
2021/04/27 09:23:34;;;;;;;29.45;22.40;;;12.70;99.90;;;;;;5032681;28;20447;-72
2021/04/27 09:26:23;;;;;;;29.38;23.20;;;12.70;99.90;;;;;;5050619;28;20504;-72
2021/04/27 09:28:51;;;;;;;27.83;23.05;;;12.80;99.90;;;;;;5072879;28;20377;-72
2021/04/27 09:31:36;;;;;;;30.05;24.42;;;12.80;99.90;;;;;;5074184;28;20025;-72
2021/04/27 09:34:22;;;;;;;33.55;26.27;;;12.90;99.90;;;;;;5072849;28;20024;-72
2021/04/27 09:36:54;;;;;;;38.25;31.38;;;12.90;99.90;;;;;;5074049;28;20070;-72
2021/04/27 09:39:47;;;;;;;37.03;29.10;;;13.00;99.90;;;;;;5061717;28;20064;-71
2021/04/27 09:42:17;;;;;;;26.30;21.83;;;13.10;99.90;;;;;;5034338;28;20470;-72
2021/04/27 09:44:46;;;;;;;32.97;25.55;;;13.10;99.90;;;;;;5033906;28;20603;-71
2021/04/27 09:47:30;;;;;;;33.88;24.00;;;13.20;99.90;;;;;;5033947;28;20030;-71
2021/04/27 09:50:04;;;;;;;35.63;24.92;;;13.10;99.90;;;;;;5033828;28;20021;-71
2021/04/27 09:52:32;;;;;;;29.17;23.17;;;13.00;99.90;;;;;;5033789;28;20053;-71
2021/04/27 09:55:17;;;;;;;31.17;23.95;;;13.00;99.90;;;;;;5033743;28;20033;-72
2021/04/27 09:57:54;;;;;;;29.90;24.60;;;13.10;99.90;;;;;;5032398;28;20040;-72
2021/04/27 10:00:28;;;;;;;25.67;21.67;;;13.20;99.90;;;;;;5032275;28;20035;-71
2021/04/27 10:03:24;;;;;;;27.48;22.58;;;13.20;99.90;;;;;;5033662;28;20033;-72
2021/04/27 10:05:50;;;;;;;28.63;22.45;;;13.10;99.90;;;;;;5030132;28;20044;-72
2021/04/27 10:08:17;;;;;;;30.55;23.67;;;13.40;99.90;;;;;;5033489;28;20021;-72
2021/04/27 10:10:43;;;;;;;29.65;23.42;;;13.70;99.90;;;;;;5032229;28;20382;-71
2021/04/27 10:13:10;;;;;;;24.15;20.45;;;13.70;99.90;;;;;;5032340;28;20454;-72
2021/04/27 10:15:37;;;;;;;27.90;21.35;;;13.80;99.90;;;;;;5033549;28;20156;-71
2021/04/27 10:18:08;;;;;;;26.55;19.98;;;13.80;99.90;;;;;;5033557;28;20072;-71
2021/04/27 10:20:34;;;;;;;26.10;20.65;;;13.90;99.90;;;;;;5033627;28;20029;-72
2021/04/27 10:23:05;;;;;;;28.42;21.90;;;13.90;99.90;;;;;;5031767;28;20056;-72
2021/04/27 10:25:31;;;;;;;29.15;22.38;;;14.00;99.90;;;;;;5039271;28;20436;-73
2021/04/27 10:28:00;;;;;;;25.67;19.58;;;14.00;99.90;;;;;;5027653;28;20035;-72
2021/04/27 10:30:30;;;;;;;26.33;21.38;;;13.80;99.90;;;;;;5023697;28;20125;-70
2021/04/27 10:33:02;;;;;;;27.50;21.25;;;13.70;99.90;;;;;;5031948;28;20099;-69
2021/04/27 10:35:39;;;;;;;28.55;19.73;;;13.70;99.90;;;;;;5031883;28;20075;-72
2021/04/27 10:38:06;;;;;;;28.90;20.60;;;13.70;99.90;;;;;;5031135;28;20494;-72
2021/04/27 10:40:46;;;;;;;26.27;19.90;;;13.60;99.90;;;;;;5031819;28;20099;-68
2021/04/27 10:43:36;;;;;;;27.55;20.70;;;13.60;99.90;;;;;;5031746;28;20034;-70
2021/04/27 10:46:09;;;;;;;28.05;19.73;;;13.70;99.90;;;;;;5032272;28;20617;-71
2021/04/27 10:48:38;;;;;;;29.05;21.05;;;13.70;99.90;;;;;;5032868;28;20035;-70
2021/04/27 10:51:35;;;;;;;31.17;21.77;;;13.80;99.90;;;;;;5033037;28;20041;-70
2021/04/27 10:54:08;;;;;;;31.08;20.92;;;13.80;99.90;;;;;;5030386;28;20153;-69
2021/04/27 10:56:57;;;;;;;28.55;21.38;;;13.70;99.90;;;;;;5013722;28;20075;-70
2021/04/27 10:59:26;;;;;;;28.77;20.95;;;13.70;99.90;;;;;;5030284;28;20029;-69
2021/04/27 11:02:09;;;;;;;34.50;23.55;;;13.60;99.90;;;;;;5013760;28;20500;-68
2021/04/27 11:04:56;;;;;;;36.80;24.70;;;13.60;99.90;;;;;;5013602;28;20049;-70
2021/04/27 11:07:22;;;;;;;27.77;21.33;;;13.60;99.90;;;;;;5013711;28;20040;-70
2021/04/27 11:10:00;;;;;;;33.65;25.60;;;13.50;99.90;;;;;;5013666;28;20030;-73
2021/04/27 11:12:29;;;;;;;31.42;23.30;;;13.40;99.90;;;;;;5030206;28;20029;-71
2021/04/27 11:14:56;;;;;;;28.85;22.05;;;13.50;99.90;;;;;;5013692;28;20087;-71
2021/04/27 11:17:34;;;;;;;33.55;22.75;;;13.40;99.90;;;;;;5013550;28;20468;-70
2021/04/27 11:20:01;;;;;;;29.05;24.10;;;13.40;99.90;;;;;;5030348;28;20167;-70
2021/04/27 11:22:32;;;;;;;34.47;25.00;;;13.30;99.90;;;;;;5013680;28;20025;-71
2021/04/27 11:25:03;;;;;;;32.53;23.02;;;13.20;99.90;;;;;;5013594;28;20397;-70
2021/04/27 11:27:34;;;;;;;30.17;24.23;;;13.30;99.90;;;;;;5013633;28;20025;-73
2021/04/27 11:30:12;;;;;;;29.75;24.52;;;13.20;99.90;;;;;;5024488;28;20393;-69
2021/04/27 11:32:44;;;;;;;35.38;26.58;;;13.20;99.90;;;;;;5051186;28;20021;-72
2021/04/27 11:35:19;;;;;;;31.23;23.65;;;13.30;99.90;;;;;;5053579;28;20029;-69
2021/04/27 11:37:51;;;;;;;36.67;26.80;;;13.30;99.90;;;;;;5056351;28;20032;-70
2021/04/27 11:40:36;;;;;;;39.25;26.55;;;13.40;99.90;;;;;;5056292;28;20025;-72
2021/04/27 11:43:13;;;;;;;40.45;27.05;;;13.50;99.90;;;;;;5056227;28;20029;-69
2021/04/27 11:45:42;;;;;;;32.58;24.27;;;13.60;99.90;;;;;;5056158;28;20035;-71
2021/04/27 11:48:16;;;;;;;34.85;27.25;;;13.60;99.90;;;;;;5056081;28;20084;-73
2021/04/27 11:50:42;;;;;;;33.17;26.23;;;13.40;99.90;;;;;;5056137;28;20063;-72
2021/04/27 11:53:10;;;;;;;34.63;28.20;;;13.50;99.90;;;;;;5056277;28;20068;-70
2021/04/27 11:55:42;;;;;;;36.90;28.00;;;13.60;99.90;;;;;;5056662;28;20493;-72
2021/04/27 11:58:08;;;;;;;31.65;23.73;;;13.70;99.90;;;;;;5054064;28;20017;-75
2021/04/27 12:00:48;;;;;;;37.70;28.15;;;13.70;99.90;;;;;;5053695;28;20029;-71
2021/04/27 12:03:23;;;;;;;41.95;31.65;;;13.80;99.90;;;;;;5053958;28;20029;-69
2021/04/27 12:05:52;;;;;;;37.67;29.25;;;13.80;99.90;;;;;;5053597;28;20344;-71
2021/04/27 12:08:38;;;;;;;37.58;29.08;;;13.70;99.90;;;;;;5055710;28;20028;-68
2021/04/27 12:11:25;;;;;;;37.05;27.80;;;13.80;99.90;;;;;;5054298;28;20350;-73
2021/04/27 12:13:54;;;;;;;32.97;25.92;;;13.70;99.90;;;;;;5052803;28;20032;-70
2021/04/27 12:16:26;;;;;;;37.75;26.48;;;13.60;99.90;;;;;;5054204;28;20466;-72
2021/04/27 12:19:05;;;;;;;37.28;27.35;;;13.50;99.90;;;;;;5055315;28;20082;-73
2021/04/27 12:21:43;;;;;;;34.80;24.38;;;13.60;99.90;;;;;;5055613;28;20087;-73
2021/04/27 12:24:23;;;;;;;36.90;24.63;;;13.60;99.90;;;;;;5055235;28;20032;-72
2021/04/27 12:27:12;;;;;;;31.05;22.92;;;13.50;99.90;;;;;;5070762;28;20459;-72
2021/04/27 12:29:39;;;;;;;32.63;25.42;;;13.50;99.90;;;;;;5075661;28;20048;-69
2021/04/27 12:32:11;;;;;;;30.35;22.77;;;13.60;99.90;;;;;;5075309;28;20029;-71
2021/04/27 12:35:07;;;;;;;36.28;22.80;;;13.60;99.90;;;;;;5075269;28;20064;-68
2021/04/27 12:37:36;;;;;;;30.80;23.73;;;13.50;99.90;;;;;;5036793;28;20060;-71
2021/04/27 12:40:13;;;;;;;34.42;24.80;;;13.50;99.90;;;;;;5075121;28;20040;-72
2021/04/27 12:42:45;;;;;;;31.73;21.95;;;13.50;99.90;;;;;;5075384;28;20039;-70